Time;durP1;ratioP1;P1;durP2;ratioP2;P2;SDS_P1;SDS_P2;PMS_P1;PMS_P2;Temp;Humidity;BMP_temperature;BMP_pressure;BME280_temperature;BME280_humidity;BME280_pressure;Samples;Min_cycle;Max_cycle;Signal;HPM_P1;HPM_P2
2020/12/07 00:01:48;;;;;;;4.38;2.50;;;19.80;53.10;;;;;;5111249;28;20020;-71
2020/12/07 00:04:15;;;;;;;4.57;2.33;;;19.00;55.10;;;;;;5113215;28;20492;-71
2020/12/07 00:06:42;;;;;;;3.15;2.38;;;18.50;56.20;;;;;;5105624;28;20050;-72
2020/12/07 00:09:12;;;;;;;4.30;2.53;;;18.10;56.70;;;;;;5094534;28;20024;-71
2020/12/07 00:11:47;;;;;;;5.53;2.70;;;17.30;58.50;;;;;;5094037;28;20031;-71
2020/12/07 00:14:15;;;;;;;3.55;2.17;;;16.90;59.80;;;;;;5092724;28;20757;-71
2020/12/07 00:16:49;;;;;;;3.95;2.47;;;16.70;60.90;;;;;;5097738;28;20035;-71
2020/12/07 00:19:16;;;;;;;3.38;2.20;;;16.30;62.40;;;;;;5113011;28;20027;-71
2020/12/07 00:21:43;;;;;;;6.70;2.40;;;16.10;63.90;;;;;;5111072;28;20375;-71
2020/12/07 00:24:14;;;;;;;5.88;2.05;;;16.10;64.20;;;;;;5112206;28;20027;-71
2020/12/07 00:26:44;;;;;;;6.40;2.38;;;15.90;65.30;;;;;;5109434;28;20375;-71
2020/12/07 00:29:11;;;;;;;3.75;2.17;;;15.90;66.40;;;;;;5109996;28;20040;-71
2020/12/07 00:31:38;;;;;;;3.28;1.90;;;15.70;67.60;;;;;;5107925;28;20139;-71
2020/12/07 00:34:06;;;;;;;4.80;2.08;;;15.50;68.80;;;;;;5092025;28;20031;-71
2020/12/07 00:36:33;;;;;;;5.25;2.20;;;15.30;70.30;;;;;;5092427;28;20040;-71
2020/12/07 00:39:00;;;;;;;4.63;2.03;;;15.10;71.60;;;;;;5092067;28;20123;-71
2020/12/07 00:41:27;;;;;;;5.50;2.10;;;15.00;72.10;;;;;;5092078;28;20065;-71
2020/12/07 00:43:54;;;;;;;4.03;2.47;;;14.80;74.10;;;;;;5111886;28;20028;-71
2020/12/07 00:46:21;;;;;;;4.15;2.55;;;14.50;73.00;;;;;;5112121;28;20375;-71
2020/12/07 00:48:48;;;;;;;4.13;3.50;;;14.40;72.90;;;;;;5092200;28;20040;-71
2020/12/07 00:51:18;;;;;;;8.48;2.47;;;14.20;70.80;;;;;;5091820;28;20024;-71
2020/12/07 00:53:44;;;;;;;4.30;2.40;;;14.10;71.20;;;;;;5094690;28;20035;-71
2020/12/07 00:56:14;;;;;;;5.88;2.45;;;13.80;71.00;;;;;;5091362;28;20044;-71
2020/12/07 00:58:42;;;;;;;6.45;2.60;;;13.50;70.60;;;;;;5109364;28;20031;-71
2020/12/07 01:01:09;;;;;;;4.88;3.20;;;13.40;70.30;;;;;;5112053;28;20508;-71
2020/12/07 01:03:36;;;;;;;5.55;3.22;;;13.20;70.40;;;;;;5110457;28;20031;-71
2020/12/07 01:06:03;;;;;;;6.22;2.55;;;13.30;71.20;;;;;;5112004;28;20083;-70
2020/12/07 01:08:30;;;;;;;7.38;2.33;;;13.30;71.30;;;;;;5096543;28;20476;-71
2020/12/07 01:10:57;;;;;;;6.55;2.60;;;13.30;71.40;;;;;;5091348;28;20100;-71
2020/12/07 01:13:24;;;;;;;5.50;3.00;;;13.10;70.90;;;;;;5092464;28;20043;-71
2020/12/07 01:15:51;;;;;;;6.57;2.90;;;12.90;71.60;;;;;;5089953;28;20388;-70
2020/12/07 01:18:18;;;;;;;5.30;3.03;;;12.70;72.70;;;;;;5103761;28;20036;-71
2020/12/07 01:20:45;;;;;;;5.22;3.05;;;12.60;73.30;;;;;;5111815;28;20049;-70
2020/12/07 01:23:12;;;;;;;37.92;30.13;;;12.40;72.60;;;;;;5110008;28;20031;-71
2020/12/07 01:25:39;;;;;;;7.80;4.50;;;12.40;72.60;;;;;;5111856;28;20027;-70
2020/12/07 01:28:06;;;;;;;5.85;4.43;;;12.50;71.70;;;;;;5101411;28;20035;-71
2020/12/07 01:30:33;;;;;;;6.53;2.50;;;12.40;71.60;;;;;;5091481;28;20027;-71
2020/12/07 01:33:00;;;;;;;10.52;3.13;;;12.40;71.40;;;;;;5092569;28;20051;-70
2020/12/07 01:35:27;;;;;;;8.05;2.60;;;12.40;71.20;;;;;;5091573;28;20032;-71
2020/12/07 01:37:54;;;;;;;5.53;2.63;;;12.40;72.00;;;;;;5099108;28;20031;-70
2020/12/07 01:40:21;;;;;;;4.43;2.05;;;12.40;72.00;;;;;;5104765;28;20040;-69
2020/12/07 01:42:48;;;;;;;4.50;2.33;;;12.40;71.50;;;;;;5103760;28;20031;-69
2020/12/07 01:45:15;;;;;;;4.10;1.95;;;12.40;72.40;;;;;;5115568;28;20451;-74
2020/12/07 01:47:45;;;;;;;6.15;3.10;;;12.40;71.40;;;;;;5115475;28;20483;-71
2020/12/07 01:50:12;;;;;;;7.95;2.20;;;12.40;72.00;;;;;;5115575;28;20031;-70
2020/12/07 01:52:39;;;;;;;3.47;2.13;;;12.30;71.40;;;;;;5115593;28;20059;-70
2020/12/07 01:55:06;;;;;;;5.10;2.42;;;12.30;71.10;;;;;;5115045;28;20077;-72
2020/12/07 01:57:33;;;;;;;5.10;2.00;;;12.30;71.60;;;;;;5115099;28;20034;-71
2020/12/07 02:00:00;;;;;;;2.53;1.67;;;12.30;71.40;;;;;;5115236;28;20038;-71
2020/12/07 02:02:27;;;;;;;5.05;1.95;;;12.20;71.40;;;;;;5115470;28;20501;-72
2020/12/07 02:04:54;;;;;;;2.75;1.80;;;12.20;71.80;;;;;;5115433;28;20042;-70
2020/12/07 02:07:21;;;;;;;3.35;1.50;;;12.20;71.90;;;;;;5114970;28;20028;-73
2020/12/07 02:09:48;;;;;;;3.22;1.60;;;12.10;72.20;;;;;;5114751;28;20039;-70
2020/12/07 02:12:15;;;;;;;5.28;2.60;;;12.00;72.40;;;;;;5114835;28;20028;-71
2020/12/07 02:14:42;;;;;;;6.68;3.20;;;12.00;72.80;;;;;;5115291;28;20029;-71
2020/12/07 02:17:09;;;;;;;7.47;3.38;;;12.00;73.60;;;;;;5115106;28;20019;-71
2020/12/07 02:19:37;;;;;;;5.97;2.20;;;11.90;73.80;;;;;;5115082;28;20024;-70
2020/12/07 02:22:04;;;;;;;6.68;2.50;;;11.90;74.10;;;;;;5115118;28;20409;-70
2020/12/07 02:24:31;;;;;;;5.70;1.90;;;11.80;75.10;;;;;;5115037;28;20372;-71
2020/12/07 02:26:58;;;;;;;5.28;2.25;;;11.80;75.30;;;;;;5114459;28;20034;-71
2020/12/07 02:29:29;;;;;;;11.77;2.42;;;11.80;74.90;;;;;;5114925;28;20034;-70
2020/12/07 02:32:13;;;;;;;3.88;1.55;;;11.80;76.00;;;;;;5106675;28;20627;-71
2020/12/07 02:34:41;;;;;;;5.53;2.03;;;11.80;75.70;;;;;;5110026;28;20035;-71
2020/12/07 02:37:09;;;;;;;6.45;2.38;;;11.80;76.00;;;;;;5114375;28;20027;-70
2020/12/07 02:39:37;;;;;;;5.05;2.40;;;11.70;77.10;;;;;;5103409;28;20039;-70
2020/12/07 02:42:05;;;;;;;5.68;2.55;;;11.70;76.40;;;;;;5097234;28;20027;-70
2020/12/07 02:44:32;;;;;;;4.82;1.85;;;11.70;76.80;;;;;;5114187;28;20031;-70
2020/12/07 02:46:59;;;;;;;5.50;2.10;;;11.70;77.20;;;;;;5103190;28;20395;-69
2020/12/07 02:49:29;;;;;;;4.85;2.08;;;11.70;78.20;;;;;;5093824;28;20491;-69
2020/12/07 02:51:57;;;;;;;4.20;1.80;;;11.60;77.40;;;;;;5102254;28;20646;-70
2020/12/07 02:54:24;;;;;;;6.15;2.15;;;11.70;78.70;;;;;;5107856;28;20035;-70
2020/12/07 02:56:51;;;;;;;6.47;2.30;;;11.70;78.50;;;;;;5113710;28;20051;-69
2020/12/07 02:59:17;;;;;;;6.25;1.88;;;11.70;78.90;;;;;;5113955;28;20028;-69
2020/12/07 03:01:44;;;;;;;4.78;2.20;;;11.60;79.20;;;;;;5114187;28;20023;-69
2020/12/07 03:04:11;;;;;;;4.40;2.30;;;11.70;79.40;;;;;;5113891;28;20023;-70
2020/12/07 03:06:38;;;;;;;3.65;1.70;;;11.70;79.50;;;;;;5114009;28;20455;-71
2020/12/07 03:09:05;;;;;;;6.93;1.95;;;11.70;78.90;;;;;;5114096;28;20031;-70
2020/12/07 03:11:32;;;;;;;5.18;2.00;;;11.60;80.10;;;;;;5113795;28;20478;-71
2020/12/07 03:13:59;;;;;;;7.50;3.00;;;11.50;80.40;;;;;;5112152;28;20040;-70
2020/12/07 03:16:26;;;;;;;7.80;2.28;;;11.50;80.00;;;;;;5113924;28;20055;-71
2020/12/07 03:18:53;;;;;;;3.88;1.73;;;11.40;81.10;;;;;;5103114;28;20023;-71
2020/12/07 03:21:20;;;;;;;5.63;2.90;;;11.40;81.60;;;;;;5102929;28;20483;-71
2020/12/07 03:23:47;;;;;;;3.40;1.67;;;11.40;82.30;;;;;;5093697;28;20032;-71
2020/12/07 03:26:14;;;;;;;2.53;1.45;;;11.40;81.80;;;;;;5105660;28;20375;-71
2020/12/07 03:28:41;;;;;;;6.20;3.85;;;11.40;82.50;;;;;;5105164;28;20044;-69
2020/12/07 03:31:08;;;;;;;4.93;2.17;;;11.40;82.60;;;;;;5097278;28;20019;-71
2020/12/07 03:33:35;;;;;;;2.33;1.60;;;11.30;83.00;;;;;;5113754;28;20023;-71
2020/12/07 03:36:02;;;;;;;2.90;1.65;;;11.40;82.80;;;;;;5108245;28;20467;-71
2020/12/07 03:38:29;;;;;;;3.28;1.83;;;11.30;81.30;;;;;;5094436;28;20387;-71
2020/12/07 03:40:56;;;;;;;4.82;1.63;;;11.40;82.00;;;;;;5110214;28;20038;-71
2020/12/07 03:43:22;;;;;;;3.78;1.83;;;11.30;81.80;;;;;;5113065;28;20058;-71
2020/12/07 03:45:49;;;;;;;4.75;1.65;;;11.30;82.40;;;;;;5113403;28;20019;-71
2020/12/07 03:48:16;;;;;;;4.07;1.67;;;11.40;82.10;;;;;;5113027;28;20047;-71
2020/12/07 03:50:43;;;;;;;3.13;1.63;;;11.40;82.80;;;;;;5098425;28;20020;-71
2020/12/07 03:53:13;;;;;;;4.25;2.00;;;11.30;83.00;;;;;;5106343;28;20031;-71
2020/12/07 03:55:40;;;;;;;3.83;1.75;;;11.30;83.40;;;;;;5107128;28;20487;-71
2020/12/07 03:58:07;;;;;;;4.07;1.80;;;11.30;83.80;;;;;;5113069;28;20035;-71
2020/12/07 04:00:34;;;;;;;4.65;1.80;;;11.30;84.40;;;;;;5113044;28;20471;-72
2020/12/07 04:03:06;;;;;;;5.30;2.15;;;11.30;85.70;;;;;;5113108;28;20396;-70
2020/12/07 04:05:39;;;;;;;6.40;2.75;;;11.20;86.10;;;;;;5110032;28;20038;-70
2020/12/07 04:08:06;;;;;;;2.70;1.50;;;11.20;86.40;;;;;;5112794;28;20035;-70
2020/12/07 04:10:36;;;;;;;2.60;1.70;;;11.20;86.20;;;;;;5110676;28;20031;-70
2020/12/07 04:13:04;;;;;;;2.13;1.30;;;11.20;85.80;;;;;;5112566;28;20023;-70
2020/12/07 04:15:31;;;;;;;3.17;1.48;;;11.10;86.70;;;;;;5112945;28;20028;-71
2020/12/07 04:17:59;;;;;;;3.13;1.63;;;11.10;86.00;;;;;;5112671;28;20387;-71
2020/12/07 04:20:26;;;;;;;3.30;1.42;;;11.00;85.60;;;;;;5112675;28;20030;-71
2020/12/07 04:22:53;;;;;;;2.70;1.70;;;10.90;86.60;;;;;;5112633;28;20027;-70
2020/12/07 04:25:21;;;;;;;2.25;1.50;;;10.90;85.60;;;;;;5112958;28;20016;-70
2020/12/07 04:27:48;;;;;;;1.00;0.90;;;10.80;85.40;;;;;;5112143;28;20395;-71
2020/12/07 04:30:15;;;;;;;2.20;1.17;;;10.80;85.90;;;;;;5112745;28;20031;-71
2020/12/07 04:32:42;;;;;;;3.28;0.90;;;10.80;84.70;;;;;;5112473;28;20016;-70
2020/12/07 04:35:09;;;;;;;3.00;1.25;;;10.80;84.30;;;;;;5112279;28;20039;-71
2020/12/07 04:37:36;;;;;;;1.27;0.80;;;10.80;83.30;;;;;;5112402;28;20031;-71
2020/12/07 04:40:04;;;;;;;3.03;0.93;;;10.80;83.00;;;;;;5112695;28;20502;-71
2020/12/07 04:42:31;;;;;;;1.17;0.85;;;10.80;82.50;;;;;;5112172;28;20024;-71
2020/12/07 04:44:59;;;;;;;4.35;1.00;;;10.70;81.90;;;;;;5112383;28;20038;-71
2020/12/07 04:47:26;;;;;;;2.45;0.80;;;10.80;81.50;;;;;;5112138;28;20383;-71
2020/12/07 04:49:54;;;;;;;2.63;1.30;;;10.80;81.10;;;;;;5112189;28;20047;-71
2020/12/07 04:52:22;;;;;;;1.92;0.80;;;11.00;80.70;;;;;;5112092;28;20336;-71
2020/12/07 04:54:51;;;;;;;3.35;0.90;;;11.10;80.40;;;;;;5112061;28;20031;-70
2020/12/07 04:57:23;;;;;;;2.13;0.70;;;11.20;80.00;;;;;;5112015;28;20047;-71
2020/12/07 04:59:52;;;;;;;1.67;0.80;;;11.20;79.80;;;;;;5112179;28;20035;-71
2020/12/07 05:02:19;;;;;;;1.92;0.88;;;11.20;79.80;;;;;;5112116;28;20042;-71
2020/12/07 05:04:46;;;;;;;2.35;1.08;;;11.20;79.90;;;;;;5093687;28;20031;-71
2020/12/07 05:07:13;;;;;;;1.80;1.00;;;11.10;80.00;;;;;;5099249;28;20019;-71
2020/12/07 05:09:40;;;;;;;2.25;0.88;;;11.10;80.40;;;;;;5112007;28;20036;-71
2020/12/07 05:12:34;;;;;;;2.67;0.88;;;11.10;79.50;;;;;;5105626;28;20016;-71
2020/12/07 05:14:54;;;;;;;2.70;0.77;;;11.30;78.40;;;;;;5091410;28;20036;-71
2020/12/07 05:17:22;;;;;;;4.15;1.15;;;11.50;75.50;;;;;;5099416;28;20023;-71
2020/12/07 05:19:50;;;;;;;1.58;0.60;;;11.70;72.90;;;;;;5116431;28;20106;-70
2020/12/07 05:22:17;;;;;;;2.38;0.90;;;11.90;70.90;;;;;;5109840;28;20031;-70
2020/12/07 05:24:51;;;;;;;3.38;0.77;;;12.10;68.80;;;;;;5096733;28;20039;-70
2020/12/07 05:27:22;;;;;;;2.03;0.52;;;12.40;65.80;;;;;;5096066;28;20629;-71
2020/12/07 05:30:06;;;;;;;2.47;0.80;;;12.70;63.90;;;;;;5095386;28;20056;-70
2020/12/07 05:32:38;;;;;;;1.98;0.65;;;12.80;62.80;;;;;;5102360;28;20472;-70
2020/12/07 05:35:07;;;;;;;2.58;1.02;;;12.90;62.00;;;;;;5114160;28;20387;-70
2020/12/07 05:37:35;;;;;;;1.52;0.60;;;12.90;61.80;;;;;;5108832;28;20032;-70
2020/12/07 05:40:11;;;;;;;2.80;0.90;;;12.80;62.70;;;;;;5095353;28;20032;-70
2020/12/07 05:42:38;;;;;;;1.90;0.75;;;12.80;62.10;;;;;;5101600;28;20027;-70
2020/12/07 05:45:07;;;;;;;1.65;0.85;;;12.90;61.50;;;;;;5114182;28;20031;-70
2020/12/07 05:47:37;;;;;;;0.80;0.50;;;13.00;60.90;;;;;;5111334;28;20503;-70
2020/12/07 05:50:07;;;;;;;2.08;0.57;;;13.00;60.70;;;;;;5095065;28;20048;-71
2020/12/07 05:52:46;;;;;;;1.13;0.50;;;13.00;60.40;;;;;;5097961;28;20403;-70
2020/12/07 05:55:21;;;;;;;1.30;0.57;;;12.90;60.50;;;;;;5113807;28;20496;-71
2020/12/07 05:57:58;;;;;;;1.45;0.85;;;12.80;61.00;;;;;;5112422;28;20375;-71
2020/12/07 06:00:25;;;;;;;1.40;0.60;;;12.80;61.00;;;;;;5095206;28;20031;-70
2020/12/07 06:02:54;;;;;;;1.40;0.77;;;12.80;60.70;;;;;;5103719;28;20035;-72
2020/12/07 06:05:24;;;;;;;1.10;0.60;;;12.70;60.80;;;;;;5115648;28;20027;-70
2020/12/07 06:08:07;;;;;;;2.47;0.60;;;12.70;60.40;;;;;;5113248;28;20051;-69
2020/12/07 06:10:42;;;;;;;2.35;0.80;;;12.80;60.40;;;;;;5097147;28;20028;-71
2020/12/07 06:13:14;;;;;;;3.47;0.52;;;12.70;60.60;;;;;;5108867;28;20376;-71
2020/12/07 06:15:46;;;;;;;2.35;0.90;;;12.70;60.50;;;;;;5108426;28;20039;-70
2020/12/07 06:18:26;;;;;;;;;;;12.60;61.00;;;;;;5096426;28;20031;-70
2020/12/07 06:21:05;;;;;;;1.67;0.55;;;12.60;60.00;;;;;;5100172;28;20283;-71
2020/12/07 06:23:36;;;;;;;2.13;0.55;;;12.60;59.70;;;;;;5100343;28;20526;-70
2020/12/07 06:26:08;;;;;;;1.00;0.50;;;12.60;59.40;;;;;;5094551;28;20404;-69
2020/12/07 06:28:37;;;;;;;2.83;0.90;;;12.70;58.60;;;;;;5099579;28;20035;-70
2020/12/07 06:31:12;;;;;;;3.33;0.60;;;12.70;59.30;;;;;;5114550;28;20024;-70
2020/12/07 06:33:39;;;;;;;1.00;0.40;;;12.70;58.60;;;;;;5112826;28;20379;-70
2020/12/07 06:36:24;;;;;;;1.75;0.50;;;12.70;57.70;;;;;;5112780;28;20042;-70
2020/12/07 06:38:51;;;;;;;0.57;0.40;;;13.00;56.30;;;;;;5102413;28;20035;-70
2020/12/07 06:41:39;;;;;;;1.65;0.47;;;13.00;56.00;;;;;;5115262;28;20031;-69
2020/12/07 06:44:20;;;;;;;1.40;0.38;;;13.00;55.70;;;;;;5113399;28;20040;-70
2020/12/07 06:46:48;;;;;;;0.98;0.50;;;13.00;55.20;;;;;;5111456;28;20077;-70
2020/12/07 06:49:16;;;;;;;2.15;0.60;;;13.10;54.80;;;;;;5093340;28;20036;-70
2020/12/07 06:51:47;;;;;;;1.10;0.40;;;13.00;55.00;;;;;;5110079;28;20039;-70
2020/12/07 06:57:22;;;;;;;1.17;0.65;;;12.90;55.30;;;;;;5094282;28;20067;-70
2020/12/07 06:59:56;;;;;;;0.80;0.40;;;13.00;54.70;;;;;;5113403;27;20470;-69
2020/12/07 07:02:23;;;;;;;0.88;0.40;;;13.00;54.30;;;;;;5135031;27;20023;-70
2020/12/07 07:04:55;;;;;;;0.50;0.40;;;13.10;54.10;;;;;;5114878;27;20055;-69
2020/12/07 07:07:24;;;;;;;0.75;0.30;;;13.10;54.60;;;;;;5114075;28;20034;-69
2020/12/07 07:09:51;;;;;;;0.80;0.38;;;13.10;53.10;;;;;;5114162;28;20054;-69
2020/12/07 07:12:20;;;;;;;1.55;0.47;;;13.10;53.30;;;;;;5113696;28;20020;-69
2020/12/07 07:14:53;;;;;;;0.55;0.30;;;13.20;52.50;;;;;;5114022;28;20032;-69
2020/12/07 07:17:26;;;;;;;0.98;0.45;;;13.30;52.60;;;;;;5093584;28;20027;-69
2020/12/07 07:19:53;;;;;;;2.40;0.40;;;13.30;52.40;;;;;;5093641;28;20031;-69
2020/12/07 07:22:20;;;;;;;1.02;0.52;;;13.30;52.50;;;;;;5093754;28;20031;-70
2020/12/07 07:24:57;;;;;;;1.75;0.55;;;13.30;51.70;;;;;;5094746;28;20376;-69
2020/12/07 07:30:12;;;;;;;0.85;0.40;;;13.30;51.80;;;;;;5114205;28;20035;-69
2020/12/07 07:32:43;;;;;;;2.40;0.30;;;13.30;51.90;;;;;;5114010;28;20463;-69
2020/12/07 07:35:12;;;;;;;2.10;0.50;;;13.40;51.80;;;;;;5113422;28;20032;-70
2020/12/07 07:37:40;;;;;;;0.98;0.50;;;13.20;52.20;;;;;;5113378;28;20031;-70
2020/12/07 07:40:16;;;;;;;3.00;0.60;;;13.10;51.90;;;;;;5113165;28;20027;-69
2020/12/07 07:43:04;;;;;;;2.50;0.50;;;13.10;51.80;;;;;;5113057;28;20040;-69
2020/12/07 07:45:36;;;;;;;0.82;0.60;;;13.10;51.80;;;;;;5113542;28;20383;-69
2020/12/07 08:16:19;;;;;;;0.45;0.30;;;13.10;51.70;;;;;;5104219;28;20038;-69
2020/12/07 08:18:47;;;;;;;1.20;0.35;;;13.10;51.90;;;;;;5110347;28;20054;-69
2020/12/07 08:21:33;;;;;;;1.60;0.57;;;13.00;52.00;;;;;;5112927;28;20031;-69
2020/12/07 08:24:08;;;;;;;0.68;0.35;;;13.20;51.70;;;;;;5096595;28;20452;-71
2020/12/07 08:26:43;;;;;;;0.77;0.40;;;13.10;52.00;;;;;;5092362;28;20036;-71
2020/12/07 08:29:13;;;;;;;3.15;0.70;;;13.00;52.50;;;;;;5093311;28;20055;-70
2020/12/07 08:31:41;;;;;;;1.35;0.50;;;13.00;52.90;;;;;;5092631;28;20373;-70
2020/12/07 08:34:14;;;;;;;1.45;0.63;;;13.00;53.50;;;;;;5098531;28;20395;-70
2020/12/07 08:36:47;;;;;;;3.20;0.40;;;12.90;53.20;;;;;;5111614;28;20036;-69
2020/12/07 08:39:14;;;;;;;1.75;0.50;;;12.90;53.90;;;;;;5112425;28;20024;-69
2020/12/07 08:41:41;;;;;;;2.28;0.35;;;12.80;54.10;;;;;;5108974;28;20040;-69
2020/12/07 08:44:09;;;;;;;1.27;0.57;;;12.80;54.00;;;;;;5094292;28;20035;-70
2020/12/07 08:46:38;;;;;;;0.65;0.40;;;12.80;53.70;;;;;;5103782;28;20473;-69
2020/12/07 08:49:08;;;;;;;1.95;0.43;;;12.80;53.30;;;;;;5106124;28;20040;-69
2020/12/07 08:51:36;;;;;;;1.23;0.40;;;12.90;52.90;;;;;;5091856;28;20028;-70
2020/12/07 08:54:04;;;;;;;1.77;0.50;;;12.90;53.10;;;;;;5093908;28;20027;-70
2020/12/07 08:56:31;;;;;;;0.68;0.47;;;12.90;53.30;;;;;;5110517;28;20483;-69
2020/12/07 08:58:58;;;;;;;2.72;0.50;;;12.90;53.50;;;;;;5111810;28;20028;-70
2020/12/07 09:01:25;;;;;;;1.02;0.40;;;12.80;53.30;;;;;;5111670;28;20028;-70
2020/12/07 09:03:52;;;;;;;3.00;0.98;;;12.80;53.50;;;;;;5106742;28;20029;-69
2020/12/07 09:06:21;;;;;;;1.38;0.50;;;12.80;53.70;;;;;;5111987;28;20027;-69
2020/12/07 09:08:48;;;;;;;1.73;0.52;;;12.70;53.70;;;;;;5111940;28;20031;-69
2020/12/07 09:11:20;;;;;;;0.77;0.38;;;12.70;53.90;;;;;;5111923;28;20139;-69
2020/12/07 09:13:47;;;;;;;1.38;0.55;;;12.70;54.10;;;;;;5111229;28;20031;-69
2020/12/07 09:16:14;;;;;;;1.27;0.60;;;12.60;54.30;;;;;;5108778;28;20042;-69
2020/12/07 09:18:42;;;;;;;1.25;0.63;;;12.50;54.80;;;;;;5096847;28;20024;-69
2020/12/07 09:21:09;;;;;;;2.20;0.50;;;12.50;55.20;;;;;;5105455;28;20031;-69
2020/12/07 09:23:38;;;;;;;2.15;1.15;;;12.40;55.50;;;;;;5093656;28;20043;-69
2020/12/07 09:26:06;;;;;;;0.90;0.60;;;12.40;55.60;;;;;;5108821;28;20043;-69
2020/12/07 09:28:35;;;;;;;1.40;0.63;;;12.40;55.80;;;;;;5110964;28;20035;-69
2020/12/07 09:31:06;;;;;;;2.20;0.55;;;12.40;55.80;;;;;;5111062;28;20043;-70
2020/12/07 09:33:33;;;;;;;3.25;0.50;;;12.30;56.10;;;;;;5108077;28;20028;-70
2020/12/07 09:36:01;;;;;;;3.35;0.65;;;12.30;56.10;;;;;;5097756;28;20028;-70
2020/12/07 09:38:28;;;;;;;1.77;0.50;;;12.20;56.60;;;;;;5110126;28;20031;-70
2020/12/07 09:40:55;;;;;;;2.13;0.70;;;12.10;56.40;;;;;;5106813;28;20031;-70
2020/12/07 09:43:22;;;;;;;2.70;0.52;;;12.10;56.50;;;;;;5090673;28;20032;-69
2020/12/07 09:45:49;;;;;;;1.35;0.50;;;12.00;56.60;;;;;;5099288;28;20020;-70
2020/12/07 09:48:16;;;;;;;2.63;0.40;;;12.00;56.70;;;;;;5092214;28;20028;-70
2020/12/07 09:50:43;;;;;;;2.33;1.05;;;11.90;56.70;;;;;;5098106;28;20024;-70
2020/12/07 09:53:15;;;;;;;3.33;0.60;;;12.00;56.50;;;;;;5109824;28;20053;-69
2020/12/07 09:55:44;;;;;;;2.38;0.50;;;12.10;56.20;;;;;;5105658;28;20036;-70
2020/12/07 09:58:11;;;;;;;1.00;0.43;;;12.00;56.40;;;;;;5109102;28;20518;-69
2020/12/07 10:00:38;;;;;;;2.58;0.50;;;12.10;56.50;;;;;;5111514;28;20043;-69
2020/12/07 10:03:05;;;;;;;1.52;0.47;;;11.90;57.00;;;;;;5105623;28;20036;-69
2020/12/07 10:05:32;;;;;;;0.95;0.35;;;11.90;57.10;;;;;;5114381;28;20513;-70
2020/12/07 10:07:59;;;;;;;3.03;0.50;;;11.90;57.10;;;;;;5113772;28;20027;-70
2020/12/07 10:10:26;;;;;;;3.35;0.60;;;11.80;56.80;;;;;;5097038;28;20040;-70
2020/12/07 10:12:53;;;;;;;1.40;0.68;;;11.90;56.90;;;;;;5114065;28;20321;-70
2020/12/07 10:15:20;;;;;;;1.80;0.73;;;11.80;56.70;;;;;;5096142;28;20039;-70
2020/12/07 10:17:47;;;;;;;1.00;0.40;;;11.90;56.50;;;;;;5095024;28;20028;-69
2020/12/07 10:20:14;;;;;;;1.40;0.50;;;11.90;56.30;;;;;;5095971;28;20020;-70
2020/12/07 10:22:41;;;;;;;3.28;0.47;;;11.90;56.50;;;;;;5094667;28;20469;-72
2020/12/07 10:25:07;;;;;;;1.52;0.70;;;11.90;56.30;;;;;;5106016;28;20031;-69
2020/12/07 10:27:34;;;;;;;2.35;0.30;;;11.90;56.20;;;;;;5115066;28;20034;-69
2020/12/07 10:30:02;;;;;;;0.77;0.32;;;11.90;56.50;;;;;;5098378;28;20058;-69
2020/12/07 10:32:29;;;;;;;1.92;0.52;;;11.90;56.20;;;;;;5094453;28;20028;-69
2020/12/07 10:34:56;;;;;;;2.60;0.40;;;11.90;55.70;;;;;;5109350;28;20406;-69
2020/12/07 10:37:23;;;;;;;1.15;0.40;;;12.00;55.50;;;;;;5114186;28;20043;-69
2020/12/07 10:39:50;;;;;;;1.83;0.50;;;12.00;55.30;;;;;;5100155;28;20032;-69
2020/12/07 10:42:17;;;;;;;1.63;0.60;;;12.00;55.10;;;;;;5095399;28;20024;-69
2020/12/07 10:44:44;;;;;;;0.93;0.40;;;12.20;54.70;;;;;;5113437;28;20506;-70
2020/12/07 10:47:11;;;;;;;1.17;0.65;;;12.10;54.80;;;;;;5113323;28;20482;-69
2020/12/07 10:49:38;;;;;;;3.00;0.52;;;12.10;54.70;;;;;;5092251;28;20060;-69
2020/12/07 10:52:05;;;;;;;4.97;0.60;;;12.10;54.60;;;;;;5095279;28;20032;-69
2020/12/07 10:54:32;;;;;;;1.20;0.50;;;12.30;54.30;;;;;;5094406;28;20035;-69
2020/12/07 10:56:59;;;;;;;4.57;0.43;;;12.30;54.10;;;;;;5112859;28;20036;-69
2020/12/07 10:59:26;;;;;;;2.20;1.00;;;12.50;54.00;;;;;;5113304;28;20028;-69
2020/12/07 11:01:54;;;;;;;4.50;0.88;;;12.40;54.00;;;;;;5112764;28;20027;-69
2020/12/07 11:04:21;;;;;;;1.52;0.60;;;12.30;54.20;;;;;;5110047;28;20487;-69
2020/12/07 11:06:50;;;;;;;4.15;1.67;;;12.30;54.20;;;;;;5093945;28;20468;-69
2020/12/07 11:09:23;;;;;;;3.22;0.80;;;12.30;54.30;;;;;;5091794;28;20104;-69
2020/12/07 11:11:59;;;;;;;5.65;0.70;;;12.30;54.10;;;;;;5102489;28;20038;-69
2020/12/07 11:14:26;;;;;;;2.15;0.50;;;12.20;54.20;;;;;;5112484;28;20044;-69
2020/12/07 11:16:53;;;;;;;3.80;1.25;;;12.20;54.40;;;;;;5113495;28;20024;-68
2020/12/07 11:19:20;;;;;;;2.53;0.50;;;12.20;54.40;;;;;;5106109;28;20510;-69
2020/12/07 11:21:47;;;;;;;15.10;0.60;;;12.20;54.70;;;;;;5110308;28;20038;-68
2020/12/07 11:24:17;;;;;;;10.10;0.70;;;12.30;54.50;;;;;;5094792;28;20040;-68
2020/12/07 11:26:45;;;;;;;3.80;0.73;;;12.30;54.20;;;;;;5091576;28;20550;-68
2020/12/07 11:29:12;;;;;;;3.40;1.10;;;12.30;54.10;;;;;;5113502;28;20059;-69
2020/12/07 11:31:39;;;;;;;5.50;0.70;;;12.30;54.00;;;;;;5111367;28;20032;-70
2020/12/07 11:34:06;;;;;;;2.25;0.40;;;12.40;53.80;;;;;;5111933;28;20035;-69
2020/12/07 11:36:33;;;;;;;0.40;0.20;;;12.30;53.80;;;;;;5113613;28;20050;-69
2020/12/07 11:42:13;;;;;;;8.02;2.25;;;12.40;53.60;;;;;;5094181;28;20396;-69
2020/12/07 11:44:43;;;;;;;3.50;0.40;;;12.40;53.60;;;;;;5104436;28;20070;-68
2020/12/07 11:47:11;;;;;;;2.10;0.50;;;12.30;53.50;;;;;;5102676;28;20020;-68
2020/12/07 11:49:38;;;;;;;4.22;0.40;;;12.40;53.10;;;;;;5092878;28;20415;-69
2020/12/07 11:52:06;;;;;;;5.13;0.50;;;12.30;53.10;;;;;;5102167;28;20020;-71
2020/12/07 11:54:35;;;;;;;4.65;0.30;;;12.40;52.90;;;;;;5105294;28;20498;-71
2020/12/07 11:57:05;;;;;;;2.38;0.45;;;12.50;52.80;;;;;;5113923;28;20464;-70
2020/12/07 11:59:33;;;;;;;1.67;0.40;;;12.40;53.00;;;;;;5111151;28;20035;-70
2020/12/07 12:02:00;;;;;;;2.67;0.85;;;12.40;52.80;;;;;;5111634;28;20279;-69
2020/12/07 12:04:27;;;;;;;2.75;0.40;;;12.30;52.90;;;;;;5113111;28;20027;-69
2020/12/07 12:06:54;;;;;;;4.35;0.40;;;12.30;52.90;;;;;;5111679;28;20407;-70
2020/12/07 12:09:21;;;;;;;5.10;0.85;;;12.30;52.70;;;;;;5093054;28;20032;-70
2020/12/07 12:11:48;;;;;;;2.72;0.50;;;12.20;53.00;;;;;;5091146;28;20472;-70
2020/12/07 12:14:15;;;;;;;0.70;0.30;;;12.30;52.80;;;;;;5092835;28;20028;-70
2020/12/07 12:16:42;;;;;;;6.80;1.65;;;12.40;52.40;;;;;;5106027;28;20024;-70
2020/12/07 12:19:11;;;;;;;0.57;0.30;;;12.60;52.00;;;;;;5110743;28;20020;-69
2020/12/07 12:21:39;;;;;;;1.05;0.40;;;12.40;52.40;;;;;;5105697;28;20032;-69
2020/12/07 12:24:06;;;;;;;1.60;0.30;;;12.30;52.80;;;;;;5092741;28;20388;-70
2020/12/07 12:26:34;;;;;;;2.15;0.30;;;12.20;52.50;;;;;;5092643;28;20044;-70
2020/12/07 12:29:03;;;;;;;2.42;0.40;;;12.30;52.40;;;;;;5109136;28;20042;-70
2020/12/07 12:31:30;;;;;;;1.10;0.47;;;12.20;52.70;;;;;;5107642;28;20024;-70
2020/12/07 12:33:57;;;;;;;5.00;0.45;;;12.20;52.60;;;;;;5092247;28;20578;-69
2020/12/07 12:36:26;;;;;;;1.13;0.40;;;12.20;52.60;;;;;;5095334;28;20042;-69
2020/12/07 12:38:54;;;;;;;2.78;0.30;;;12.10;52.50;;;;;;5093034;28;20036;-69
2020/12/07 12:41:23;;;;;;;1.20;0.60;;;12.10;52.60;;;;;;5112183;28;20027;-70
2020/12/07 12:43:50;;;;;;;0.65;0.40;;;12.20;52.30;;;;;;5109421;28;20034;-69
2020/12/07 12:46:17;;;;;;;3.28;0.55;;;12.20;52.10;;;;;;5091578;28;20042;-69
2020/12/07 12:48:44;;;;;;;0.80;0.15;;;12.30;52.10;;;;;;5098285;28;20047;-69
2020/12/07 12:51:11;;;;;;;4.03;0.30;;;12.30;52.20;;;;;;5110306;28;20483;-70
2020/12/07 12:53:39;;;;;;;1.13;0.30;;;12.20;52.20;;;;;;5105340;28;20027;-69
2020/12/07 12:56:11;;;;;;;1.30;0.30;;;12.30;52.00;;;;;;5108668;28;20051;-70
2020/12/07 12:58:39;;;;;;;1.77;0.32;;;12.10;52.20;;;;;;5092594;28;20040;-69
2020/12/07 13:01:07;;;;;;;2.53;0.35;;;12.20;52.10;;;;;;5100704;28;20617;-69
2020/12/07 13:03:34;;;;;;;2.88;0.32;;;12.20;52.00;;;;;;5111187;28;20035;-69
2020/12/07 13:06:01;;;;;;;0.70;0.40;;;12.10;52.50;;;;;;5094117;28;20043;-70
2020/12/07 13:08:28;;;;;;;1.42;0.35;;;12.10;52.20;;;;;;5104421;28;20460;-69
2020/12/07 13:10:55;;;;;;;1.10;0.60;;;12.10;52.10;;;;;;5110324;28;20086;-69
2020/12/07 13:13:22;;;;;;;1.25;0.30;;;12.10;52.30;;;;;;5111956;28;20341;-69
2020/12/07 13:18:24;;;;;;;0.55;0.28;;;12.10;52.10;;;;;;5091636;28;20033;-70
2020/12/07 13:21:21;;;;;;;1.45;0.30;;;12.00;52.10;;;;;;5091013;28;20050;-69
2020/12/07 13:29:03;;;;;;;0.80;0.25;;;12.00;52.00;;;;;;5050225;28;20425;-68
2020/12/07 13:31:40;;;;;;;1.20;0.22;;;11.90;51.80;;;;;;5050543;28;20593;-69
2020/12/07 13:34:07;;;;;;;0.68;0.20;;;12.10;52.00;;;;;;5068129;28;20044;-69
2020/12/07 13:36:34;;;;;;;0.50;0.17;;;12.00;51.50;;;;;;5052164;28;20036;-69
2020/12/07 13:39:01;;;;;;;0.73;0.30;;;12.20;51.00;;;;;;5050638;28;20040;-69
2020/12/07 13:41:28;;;;;;;2.63;0.30;;;12.20;50.80;;;;;;5066117;28;20111;-69